createdAt,value
2019-06-07T00:00:44.346Z,96.00
2019-06-07T00:03:23.965Z,96.00
2019-06-07T00:05:41.358Z,95.90
2019-06-07T00:08:14.677Z,96.10
2019-06-07T00:10:38.346Z,95.90
2019-06-07T00:13:06.789Z,95.80
2019-06-07T00:15:34.353Z,95.70
2019-06-07T00:18:01.501Z,95.70
2019-06-07T00:20:28.444Z,95.80
2019-06-07T00:22:55.811Z,95.80
2019-06-07T00:25:24.392Z,95.70
2019-06-07T00:27:52.090Z,95.70
2019-06-07T00:30:35.914Z,95.90
2019-06-07T00:32:48.962Z,96.00
2019-06-07T00:35:19.412Z,95.60
2019-06-07T00:37:45.944Z,96.00
2019-06-07T00:40:20.643Z,96.10
2019-06-07T00:42:43.846Z,96.20
2019-06-07T00:45:13.879Z,96.10
2019-06-07T00:47:40.853Z,96.40
2019-06-07T00:50:11.060Z,96.10
2019-06-07T00:55:09.255Z,96.00
2019-06-07T00:57:36.696Z,96.10
2019-06-07T01:00:05.044Z,96.20
2019-06-07T01:02:34.582Z,96.40
2019-06-07T01:05:02.055Z,96.20
2019-06-07T01:07:29.853Z,95.80
2019-06-07T01:09:57.008Z,95.80
2019-06-07T01:12:27.016Z,95.80
2019-06-07T01:14:54.105Z,95.60
2019-06-07T01:17:40.038Z,95.60
2019-06-07T01:19:54.533Z,95.90
2019-06-07T01:22:28.407Z,96.20
2019-06-07T01:24:52.205Z,96.20
2019-06-07T01:27:22.591Z,96.20
2019-06-07T01:29:48.577Z,96.60
2019-06-07T01:32:17.516Z,96.30
2019-06-07T01:34:45.001Z,96.30
2019-06-07T01:37:12.767Z,96.60
2019-06-07T01:39:40.169Z,96.60
2019-06-07T01:42:07.491Z,96.60
2019-06-07T01:44:36.750Z,96.60
2019-06-07T01:47:04.108Z,96.60
2019-06-07T01:49:31.015Z,96.60
2019-06-07T01:51:58.359Z,96.60
2019-06-07T01:54:52.167Z,96.60
2019-06-07T01:56:54.378Z,96.60
2019-06-07T01:59:23.274Z,96.60
2019-06-07T02:01:50.828Z,96.60
2019-06-07T02:04:21.617Z,96.60
2019-06-07T02:06:47.492Z,96.60
2019-06-07T02:09:14.750Z,96.60
2019-06-07T02:11:42.118Z,96.60
2019-06-07T02:14:09.684Z,96.60
2019-06-07T02:16:36.970Z,96.60
2019-06-07T02:19:04.179Z,96.60
2019-06-07T02:21:34.361Z,96.60
2019-06-07T02:24:00.086Z,96.60
2019-06-07T02:26:29.970Z,96.50
2019-06-07T02:28:56.638Z,96.60
2019-06-07T02:31:42.354Z,96.60
2019-06-07T02:34:10.151Z,96.60
2019-06-07T02:36:41.442Z,96.60
2019-06-07T02:39:07.524Z,96.60
2019-06-07T02:41:39.333Z,96.60
2019-06-07T02:44:04.725Z,96.60
2019-06-07T02:46:44.946Z,96.60
2019-06-07T02:49:01.915Z,96.60
2019-06-07T02:51:37.811Z,96.60
2019-06-07T02:53:58.324Z,96.60
2019-06-07T02:56:42.176Z,96.60
2019-06-07T02:58:54.752Z,96.60
2019-06-07T03:01:24.691Z,96.60
2019-06-07T03:03:52.393Z,96.60
2019-06-07T03:06:20.463Z,96.60
2019-06-07T03:08:47.750Z,96.60
2019-06-07T03:11:15.500Z,96.60
2019-06-07T03:13:46.238Z,96.60
2019-06-07T03:16:17.812Z,96.60
2019-06-07T03:18:53.453Z,96.60
2019-06-07T03:21:22.501Z,96.60
2019-06-07T03:23:52.991Z,96.60
2019-06-07T03:26:22.334Z,96.60
2019-06-07T03:28:49.917Z,96.60
2019-06-07T03:31:16.944Z,96.60
2019-06-07T03:33:45.630Z,96.60
2019-06-07T03:36:23.870Z,96.60
2019-06-07T03:38:42.425Z,96.60
2019-06-07T03:41:11.187Z,96.60
2019-06-07T03:43:40.622Z,96.60
2019-06-07T03:46:07.662Z,96.60
2019-06-07T03:48:36.368Z,96.60
2019-06-07T03:51:20.290Z,96.60
2019-06-07T03:53:34.741Z,96.60
2019-06-07T03:56:03.842Z,96.60
2019-06-07T03:58:36.673Z,96.60
2019-06-07T04:01:02.158Z,96.60
2019-06-07T04:03:37.244Z,96.60
2019-06-07T04:05:58.626Z,96.60
2019-06-07T04:08:25.499Z,96.60
2019-06-07T04:10:59.575Z,96.60
2019-06-07T04:13:21.344Z,96.60
2019-06-07T04:15:49.720Z,96.60
2019-06-07T04:18:17.191Z,96.60
2019-06-07T04:20:44.391Z,96.60
2019-06-07T04:23:27.914Z,96.60
2019-06-07T04:25:42.835Z,96.60
2019-06-07T04:28:10.693Z,96.60
2019-06-07T04:30:42.307Z,96.60
2019-06-07T04:33:10.322Z,96.60
2019-06-07T04:35:40.095Z,96.60
2019-06-07T04:38:09.802Z,96.60
2019-06-07T04:40:39.966Z,96.60
2019-06-07T04:43:06.806Z,96.60
2019-06-07T04:45:41.838Z,96.60
2019-06-07T04:48:05.082Z,96.60
2019-06-07T04:50:35.368Z,96.60
2019-06-07T04:53:02.469Z,96.60
2019-06-07T04:55:29.431Z,96.60
2019-06-07T04:57:57.000Z,96.60
2019-06-07T05:02:59.774Z,96.60
2019-06-07T05:05:27.293Z,96.60
2019-06-07T05:07:54.295Z,96.60
2019-06-07T05:10:21.500Z,96.60
2019-06-07T05:12:49.485Z,96.60
2019-06-07T05:15:18.891Z,96.60
2019-06-07T05:17:46.619Z,96.60
2019-06-07T05:20:13.837Z,96.60
2019-06-07T05:22:45.117Z,96.60
2019-06-07T05:25:09.846Z,96.60
2019-06-07T05:27:39.250Z,96.60
2019-06-07T05:30:23.735Z,96.60
2019-06-07T05:32:37.518Z,96.60
2019-06-07T05:35:06.598Z,96.60
2019-06-07T05:37:34.298Z,96.60
2019-06-07T05:40:03.572Z,96.60
2019-06-07T05:42:32.102Z,96.60
2019-06-07T05:44:59.371Z,96.60
2019-06-07T05:47:26.820Z,96.60
2019-06-07T05:49:55.284Z,96.30
2019-06-07T05:52:22.862Z,95.10
2019-06-07T05:54:50.020Z,95.40
2019-06-07T05:57:17.324Z,94.50
2019-06-07T05:59:47.235Z,93.50
2019-06-07T06:02:22.759Z,93.90
2019-06-07T06:04:48.778Z,93.70
2019-06-07T06:07:13.013Z,94.10
2019-06-07T06:09:40.668Z,92.80
2019-06-07T06:12:08.453Z,92.90
2019-06-07T06:14:39.609Z,94.20
2019-06-07T06:17:04.926Z,91.80
2019-06-07T06:19:31.898Z,89.40
2019-06-07T06:21:58.920Z,89.10
2019-06-07T06:24:27.075Z,88.50
2019-06-07T06:27:05.113Z,88.20
2019-06-07T06:29:23.372Z,88.60
2019-06-07T06:32:39.858Z,87.90
2019-06-07T06:34:20.064Z,87.20
2019-06-07T06:36:50.284Z,87.90
2019-06-07T06:39:19.784Z,87.90
2019-06-07T06:41:58.638Z,87.20
2019-06-07T06:44:16.412Z,83.80
2019-06-07T06:46:49.034Z,80.40
2019-06-07T06:49:12.662Z,80.90
2019-06-07T06:51:42.071Z,81.90
2019-06-07T06:54:11.419Z,79.40
2019-06-07T06:56:39.798Z,79.30
2019-06-07T06:59:38.245Z,78.70
2019-06-07T07:01:37.062Z,77.80
2019-06-07T07:04:12.015Z,77.90
2019-06-07T07:06:33.922Z,75.80
2019-06-07T07:09:01.979Z,76.90
2019-06-07T07:11:30.228Z,77.10
2019-06-07T07:13:59.075Z,76.60
2019-06-07T07:16:26.198Z,75.70
2019-06-07T07:18:54.704Z,76.90
2019-06-07T07:21:22.523Z,74.80
2019-06-07T07:24:14.550Z,76.30
2019-06-07T07:26:18.785Z,75.50
2019-06-07T07:28:50.784Z,75.50
2019-06-07T07:31:15.344Z,76.50
2019-06-07T07:34:23.855Z,75.50
2019-06-07T07:36:28.568Z,76.30
2019-06-07T07:38:40.858Z,76.60
2019-06-07T07:41:15.334Z,75.30
2019-06-07T07:43:37.807Z,74.30
2019-06-07T07:46:26.962Z,73.90
2019-06-07T07:48:34.258Z,72.70
2019-06-07T07:51:03.266Z,71.60
2019-06-07T07:53:47.476Z,71.20
2019-06-07T07:56:00.605Z,72.60
2019-06-07T07:58:28.334Z,70.30
2019-06-07T08:01:07.889Z,69.30
2019-06-07T08:03:25.707Z,68.30
2019-06-07T08:05:56.791Z,66.00
2019-06-07T08:08:22.097Z,66.00
2019-06-07T08:10:53.708Z,65.80
2019-06-07T08:13:25.875Z,66.10
2019-06-07T08:15:52.418Z,65.30
2019-06-07T08:18:17.457Z,65.30
2019-06-07T08:21:04.832Z,65.50
2019-06-07T08:23:13.812Z,66.20
2019-06-07T08:25:41.326Z,65.20
2019-06-07T08:28:08.617Z,64.00
2019-06-07T08:30:50.182Z,64.00
2019-06-07T08:33:24.793Z,62.80
2019-06-07T08:38:24.818Z,63.50
2019-06-07T08:40:34.267Z,62.30
2019-06-07T08:43:15.980Z,62.00
2019-06-07T08:45:31.040Z,62.00
2019-06-07T08:48:09.153Z,62.00
2019-06-07T08:50:27.965Z,62.40
2019-06-07T08:53:02.871Z,59.80
2019-06-07T08:55:25.207Z,59.70
2019-06-07T08:58:01.215Z,59.40
2019-06-07T09:02:51.355Z,57.90
2019-06-07T09:05:20.321Z,55.30
2019-06-07T09:07:48.087Z,55.60
2019-06-07T09:10:15.868Z,56.20
2019-06-07T09:12:43.411Z,54.40
2019-06-07T09:15:21.371Z,54.30
2019-06-07T09:18:29.706Z,53.60
2019-06-07T09:20:30.575Z,53.20
2019-06-07T09:22:41.879Z,53.20
2019-06-07T09:25:20.732Z,51.60
2019-06-07T09:27:40.139Z,50.80
2019-06-07T09:30:12.623Z,49.10
2019-06-07T09:32:36.361Z,50.20
2019-06-07T09:35:08.027Z,50.30
2019-06-07T09:40:19.395Z,50.50
2019-06-07T09:42:32.603Z,50.50
2019-06-07T09:45:03.765Z,51.30
2019-06-07T09:47:32.844Z,50.20
2019-06-07T09:50:08.358Z,50.00
2019-06-07T09:52:30.469Z,47.80
2019-06-07T09:55:19.617Z,48.60
2019-06-07T09:57:27.238Z,49.00
2019-06-07T09:59:54.683Z,48.50
2019-06-07T10:02:21.901Z,49.40
2019-06-07T10:05:14.084Z,48.40
2019-06-07T10:08:00.134Z,47.70
2019-06-07T10:12:46.383Z,47.80
2019-06-07T10:15:18.967Z,47.10
2019-06-07T10:17:47.607Z,45.10
2019-06-07T10:20:15.508Z,45.10
2019-06-07T10:22:46.055Z,44.40
2019-06-07T10:25:17.952Z,44.50
2019-06-07T10:27:46.386Z,44.80
2019-06-07T10:30:18.117Z,45.20
2019-06-07T10:32:46.727Z,44.60
2019-06-07T10:35:16.491Z,44.10
2019-06-07T10:37:45.161Z,44.90
2019-06-07T10:40:14.624Z,44.70
2019-06-07T10:42:43.310Z,44.70
2019-06-07T10:45:12.311Z,45.60
2019-06-07T10:47:41.627Z,45.80
2019-06-07T10:50:10.507Z,45.00
2019-06-07T10:52:39.471Z,46.10
2019-06-07T10:55:08.662Z,45.60
2019-06-07T10:57:36.878Z,45.70
2019-06-07T11:00:09.388Z,45.20
2019-06-07T11:02:38.791Z,45.20
2019-06-07T11:05:08.136Z,43.50
2019-06-07T11:07:37.078Z,43.20
2019-06-07T11:10:10.763Z,42.10
2019-06-07T11:12:38.268Z,41.40
2019-06-07T11:15:08.818Z,40.60
2019-06-07T11:17:37.692Z,42.30
2019-06-07T11:20:08.054Z,41.80
2019-06-07T11:22:36.085Z,42.70
2019-06-07T11:25:04.480Z,42.30
2019-06-07T11:27:32.784Z,42.20
2019-06-07T11:30:02.461Z,40.90
2019-06-07T11:32:30.178Z,41.30
2019-06-07T11:34:57.702Z,42.30
2019-06-07T11:37:25.597Z,42.60
2019-06-07T11:39:53.463Z,43.70
2019-06-07T11:42:22.021Z,43.50
2019-06-07T11:44:56.826Z,44.10
2019-06-07T11:47:19.082Z,43.40
2019-06-07T11:49:49.739Z,43.20
2019-06-07T11:52:17.835Z,42.10
2019-06-07T11:54:48.070Z,42.10
2019-06-07T11:57:17.313Z,42.90
2019-06-07T11:59:46.261Z,42.50
2019-06-07T12:02:13.793Z,43.20
2019-06-07T12:04:41.578Z,44.60
2019-06-07T12:07:10.861Z,44.50
2019-06-07T12:09:38.336Z,44.40
2019-06-07T12:12:06.105Z,43.60
2019-06-07T12:14:33.669Z,43.50
2019-06-07T12:17:01.361Z,43.70
2019-06-07T12:19:28.794Z,43.60
2019-06-07T12:21:56.795Z,44.10
2019-06-07T12:24:24.375Z,43.30
2019-06-07T12:26:51.884Z,43.50
2019-06-07T12:29:19.448Z,42.10
2019-06-07T12:31:46.290Z,42.90
2019-06-07T12:34:13.316Z,43.00
2019-06-07T12:36:40.561Z,43.20
2019-06-07T12:39:08.993Z,43.90
2019-06-07T12:41:36.848Z,46.10
2019-06-07T12:44:05.710Z,45.10
2019-06-07T12:46:33.369Z,45.70
2019-06-07T12:49:01.111Z,44.50
2019-06-07T12:51:32.368Z,44.20
2019-06-07T12:53:59.774Z,44.10
2019-06-07T12:56:26.995Z,43.90
2019-06-07T12:58:54.055Z,43.20
2019-06-07T13:01:23.031Z,40.60
2019-06-07T13:03:51.336Z,39.90
2019-06-07T13:06:19.503Z,40.60
2019-06-07T13:08:47.239Z,40.00
2019-06-07T13:11:21.216Z,40.90
2019-06-07T13:13:44.182Z,41.40
2019-06-07T13:16:11.349Z,41.20
2019-06-07T13:18:39.326Z,42.50
2019-06-07T13:21:07.668Z,42.20
2019-06-07T13:23:35.151Z,41.70
2019-06-07T13:26:02.500Z,41.00
2019-06-07T13:28:29.492Z,41.80
2019-06-07T13:30:56.684Z,41.00
2019-06-07T13:33:25.648Z,41.80
2019-06-07T13:35:53.206Z,41.60
2019-06-07T13:38:26.778Z,42.10
2019-06-07T13:40:55.277Z,41.80
2019-06-07T13:43:23.474Z,41.60
2019-06-07T13:45:50.859Z,41.80
2019-06-07T13:48:19.213Z,42.40
2019-06-07T13:50:46.340Z,42.90
2019-06-07T13:53:13.845Z,44.50
2019-06-07T13:55:42.064Z,44.40
2019-06-07T13:58:09.216Z,43.70
2019-06-07T14:00:36.882Z,44.20
2019-06-07T14:03:04.506Z,45.20
2019-06-07T14:05:32.232Z,45.50
2019-06-07T14:07:59.696Z,45.70
2019-06-07T14:10:27.638Z,44.00
2019-06-07T14:12:55.191Z,43.90
2019-06-07T14:15:24.332Z,43.30
2019-06-07T14:17:51.789Z,43.80
2019-06-07T14:20:25.338Z,44.40
2019-06-07T14:22:53.398Z,44.20
2019-06-07T14:25:19.240Z,44.60
2019-06-07T14:27:46.334Z,45.70
2019-06-07T14:30:13.714Z,45.40
2019-06-07T14:32:41.081Z,45.30
2019-06-07T14:35:09.176Z,44.50
2019-06-07T14:37:36.466Z,45.00
2019-06-07T14:40:04.808Z,45.50
2019-06-07T14:42:31.784Z,43.00
2019-06-07T14:44:58.991Z,43.40
2019-06-07T14:47:26.302Z,43.40
2019-06-07T14:49:54.311Z,42.30
2019-06-07T14:52:21.328Z,41.60
2019-06-07T14:54:48.847Z,41.80
2019-06-07T14:57:15.938Z,42.50
2019-06-07T14:59:43.054Z,42.70
2019-06-07T15:02:10.658Z,42.40
2019-06-07T15:04:41.057Z,43.50
2019-06-07T15:07:10.379Z,42.70
2019-06-07T15:09:37.263Z,42.20
2019-06-07T15:12:04.486Z,42.50
2019-06-07T15:14:33.351Z,43.60
2019-06-07T15:17:01.278Z,43.80
2019-06-07T15:19:28.982Z,42.40
2019-06-07T15:21:57.435Z,43.20
2019-06-07T15:24:24.506Z,43.40
2019-06-07T15:26:51.653Z,44.60
2019-06-07T15:29:18.831Z,43.30
2019-06-07T15:31:47.288Z,44.80
2019-06-07T15:34:14.496Z,46.70
2019-06-07T15:36:41.781Z,46.90
2019-06-07T15:39:09.166Z,48.90
2019-06-07T15:41:37.503Z,49.50
2019-06-07T15:44:04.811Z,50.40
2019-06-07T15:46:33.583Z,51.60
2019-06-07T15:49:00.698Z,52.10
2019-06-07T15:51:28.182Z,52.40
2019-06-07T15:53:55.559Z,52.80
2019-06-07T15:56:23.408Z,53.40
2019-06-07T15:58:50.991Z,53.30
2019-06-07T16:01:18.206Z,53.70
2019-06-07T16:03:45.423Z,53.00
2019-06-07T16:06:12.581Z,52.70
2019-06-07T16:08:40.496Z,50.70
2019-06-07T16:11:07.938Z,49.70
2019-06-07T16:13:34.822Z,48.20
2019-06-07T16:16:03.718Z,47.90
2019-06-07T16:18:31.255Z,47.40
2019-06-07T16:20:59.149Z,46.70
2019-06-07T16:23:27.796Z,45.80
2019-06-07T16:25:55.143Z,45.90
2019-06-07T16:28:23.284Z,46.50
2019-06-07T16:30:51.771Z,46.40
2019-06-07T16:33:19.048Z,47.20
2019-06-07T16:35:46.407Z,49.00
2019-06-07T16:38:14.006Z,51.20
2019-06-07T16:40:42.437Z,51.40
2019-06-07T16:43:17.387Z,49.40
2019-06-07T16:45:40.871Z,49.90
2019-06-07T16:48:08.006Z,50.10
2019-06-07T16:50:36.687Z,50.00
2019-06-07T16:53:04.126Z,49.80
2019-06-07T16:55:31.883Z,51.50
2019-06-07T16:58:00.119Z,53.10
2019-06-07T17:00:27.885Z,54.50
2019-06-07T17:02:55.105Z,56.30
2019-06-07T17:05:22.396Z,57.60
2019-06-07T17:07:50.145Z,57.60
2019-06-07T17:10:17.397Z,58.20
2019-06-07T17:12:44.932Z,58.60
2019-06-07T17:15:14.697Z,59.20
2019-06-07T17:17:43.061Z,58.30
2019-06-07T17:20:10.951Z,58.70
2019-06-07T17:22:39.062Z,61.10
2019-06-07T17:25:06.815Z,62.80
2019-06-07T17:27:34.180Z,62.80
2019-06-07T17:30:01.605Z,63.00
2019-06-07T17:32:29.829Z,64.10
2019-06-07T17:34:57.135Z,63.70
2019-06-07T17:37:24.971Z,63.60
2019-06-07T17:39:54.479Z,62.10
2019-06-07T17:42:21.971Z,60.80
2019-06-07T17:44:49.283Z,61.40
2019-06-07T17:47:16.431Z,61.10
2019-06-07T17:49:44.228Z,61.10
2019-06-07T17:52:11.665Z,61.20
2019-06-07T17:54:39.190Z,61.20
2019-06-07T17:57:06.681Z,62.00
2019-06-07T17:59:34.641Z,63.60
2019-06-07T18:02:14.509Z,64.50
2019-06-07T18:04:31.616Z,65.40
2019-06-07T18:06:59.445Z,66.90
2019-06-07T18:09:27.235Z,68.00
2019-06-07T18:11:54.159Z,69.60
2019-06-07T18:14:21.776Z,72.10
2019-06-07T18:16:50.472Z,76.00
2019-06-07T18:19:17.920Z,79.40
2019-06-07T18:21:45.284Z,79.60
2019-06-07T18:24:12.534Z,81.70
2019-06-07T18:26:40.043Z,81.60
2019-06-07T18:29:07.459Z,80.10
2019-06-07T18:31:34.398Z,81.40
2019-06-07T18:34:01.622Z,82.70
2019-06-07T18:36:28.676Z,84.50
2019-06-07T18:38:55.810Z,85.00
2019-06-07T18:41:23.016Z,86.90
2019-06-07T18:43:51.145Z,88.10
2019-06-07T18:46:18.140Z,88.30
2019-06-07T18:48:46.440Z,90.10
2019-06-07T18:51:14.114Z,90.10
2019-06-07T18:53:41.492Z,91.10
2019-06-07T18:56:09.847Z,90.20
2019-06-07T18:58:37.599Z,90.20
2019-06-07T19:01:04.789Z,91.50
2019-06-07T19:03:32.533Z,92.10
2019-06-07T19:06:00.346Z,92.40
2019-06-07T19:08:28.321Z,91.80
2019-06-07T19:10:56.860Z,91.50
2019-06-07T19:13:24.403Z,90.90
2019-06-07T19:15:53.367Z,91.30
2019-06-07T19:18:23.692Z,91.00
2019-06-07T19:20:52.034Z,90.50
2019-06-07T19:23:19.647Z,90.70
2019-06-07T19:25:46.791Z,90.50
2019-06-07T19:28:14.258Z,90.50
2019-06-07T19:30:41.448Z,89.60
2019-06-07T19:33:09.440Z,89.90
2019-06-07T19:35:36.825Z,89.80
2019-06-07T19:38:04.383Z,90.20
2019-06-07T19:40:31.849Z,90.10
2019-06-07T19:43:00.563Z,89.80
2019-06-07T19:45:30.820Z,89.00
2019-06-07T19:47:56.695Z,87.80
2019-06-07T19:50:24.489Z,87.60
2019-06-07T19:52:53.004Z,88.30
2019-06-07T19:55:21.579Z,88.70
2019-06-07T19:57:50.175Z,88.90
2019-06-07T20:00:18.347Z,88.60
2019-06-07T20:02:45.877Z,88.60
2019-06-07T20:05:14.123Z,88.20
2019-06-07T20:07:41.561Z,88.60
2019-06-07T20:10:09.400Z,88.60
2019-06-07T20:12:37.252Z,88.60
2019-06-07T20:15:23.512Z,89.40
2019-06-07T20:17:34.346Z,89.80
2019-06-07T20:20:02.793Z,90.30
2019-06-07T20:22:30.286Z,90.40
2019-06-07T20:24:58.767Z,90.60
2019-06-07T20:27:26.493Z,90.40
2019-06-07T20:29:54.034Z,90.60
2019-06-07T20:32:21.353Z,91.00
2019-06-07T20:34:49.159Z,91.20
2019-06-07T20:37:16.589Z,91.20
2019-06-07T20:39:44.131Z,91.10
2019-06-07T20:42:11.640Z,90.60
2019-06-07T20:44:38.636Z,90.60
2019-06-07T20:47:06.279Z,89.30
2019-06-07T20:49:34.140Z,89.30
2019-06-07T20:52:02.995Z,89.40
2019-06-07T20:54:30.723Z,87.70
2019-06-07T20:56:58.818Z,87.60
2019-06-07T20:59:26.120Z,86.70
2019-06-07T21:01:53.961Z,86.60
2019-06-07T21:04:21.231Z,86.60
2019-06-07T21:06:48.935Z,84.00
2019-06-07T21:09:16.055Z,85.30
2019-06-07T21:11:43.305Z,85.30
2019-06-07T21:14:10.790Z,83.60
2019-06-07T21:16:37.996Z,83.40
2019-06-07T21:19:06.300Z,82.80
2019-06-07T21:21:36.317Z,82.40
2019-06-07T21:24:04.591Z,82.70
2019-06-07T21:26:32.168Z,82.30
2019-06-07T21:29:01.434Z,82.70
2019-06-07T21:31:28.623Z,81.80
2019-06-07T21:33:55.862Z,82.90
2019-06-07T21:36:22.793Z,83.70
2019-06-07T21:38:51.282Z,83.00
2019-06-07T21:41:18.655Z,83.40
2019-06-07T21:43:45.938Z,83.60
2019-06-07T21:46:20.315Z,84.60
2019-06-07T21:48:43.173Z,85.20
2019-06-07T21:51:11.044Z,85.80
2019-06-07T21:53:38.155Z,86.10
2019-06-07T21:56:06.861Z,86.60
2019-06-07T21:58:34.123Z,86.50
2019-06-07T22:01:12.118Z,86.00
2019-06-07T22:03:41.668Z,86.70
2019-06-07T22:06:09.654Z,85.90
2019-06-07T22:08:36.936Z,86.40
2019-06-07T22:11:04.080Z,85.90
2019-06-07T22:13:31.248Z,86.00
2019-06-07T22:15:58.862Z,86.30
2019-06-07T22:18:26.343Z,86.00
2019-06-07T22:20:54.643Z,85.80
2019-06-07T22:23:22.044Z,85.20
2019-06-07T22:25:49.228Z,85.50
2019-06-07T22:28:16.349Z,85.20
2019-06-07T22:30:43.722Z,85.10
2019-06-07T22:33:10.696Z,84.50
2019-06-07T22:35:37.732Z,84.20
2019-06-07T22:38:06.050Z,84.20
2019-06-07T22:40:33.165Z,83.50
2019-06-07T22:43:00.227Z,83.40
2019-06-07T22:45:28.765Z,83.30
2019-06-07T22:47:56.038Z,83.60
2019-06-07T22:50:23.779Z,82.50
2019-06-07T22:52:51.585Z,83.10
2019-06-07T22:55:19.604Z,82.50
2019-06-07T22:58:04.718Z,82.60
2019-06-07T23:00:34.063Z,82.50
2019-06-07T23:03:01.446Z,81.60
2019-06-07T23:05:29.284Z,81.90
2019-06-07T23:07:56.508Z,82.30
2019-06-07T23:10:24.068Z,81.90
2019-06-07T23:12:52.296Z,81.80
2019-06-07T23:15:20.903Z,82.00
2019-06-07T23:17:48.124Z,81.70
2019-06-07T23:20:18.104Z,82.00
2019-06-07T23:22:45.168Z,82.40
2019-06-07T23:25:15.043Z,82.40
2019-06-07T23:27:41.670Z,82.60
2019-06-07T23:30:10.678Z,82.60
2019-06-07T23:32:38.807Z,82.60
2019-06-07T23:35:06.653Z,82.90
2019-06-07T23:37:33.609Z,82.50
2019-06-07T23:40:01.210Z,82.60
2019-06-07T23:42:28.446Z,82.20
2019-06-07T23:44:55.839Z,82.00
2019-06-07T23:47:22.992Z,81.80
2019-06-07T23:49:50.786Z,81.50
2019-06-07T23:52:17.998Z,81.20
2019-06-07T23:54:45.754Z,80.80
2019-06-07T23:57:13.985Z,80.30
2019-06-07T23:59:41.440Z,80.40
